Terminal Aerodrome Forecast
Issued by NWS Binghamton, NY

Home | Current Version | Previous Version | Text Only | Print | Product List | Glossary On
Versions: 1 2 3 4 5 6 7 8 9 10 11 12 13 14 15 16 17 18
000
FTUS41 KBGM 210100 AAB
TAFSYR
TAF AMD
KSYR 210159Z 2102/2124 10005KT P6SM SCT005 OVC050
      TEMPO 2104/2106 3SM BR BKN025
     FM210600 17004KT 3SM BR SCT008 OVC025
     FM210800 20004KT 2SM BR BKN008 OVC015
     FM211500 25005KT 5SM BR BKN015 OVC040
     FM211700 25005KT P6SM -SHRA SCT015 BKN035=

USA.gov is the U.S. government's official web portal to all federal, state and local government web resources and services.